• Join FlightAware (Why Join?)
  • Login
  • US Flag 
11:11AM EDT


 

Airport Tracker/Info


-or-


 

Live Flight TrackerFlight Track Log ✈ VOZ7 ✈ 12-Jun-2013 ✈ YBBN / BNE - KLAX

Flight Track Log - Related Links

Times and Time Zones

All times are in EDT time to prevent confusion due to time zone crossing. See the VOZ7 flight status page for this flight to view local times or setup timezone preferences in your user account.

Time Position Orientation Groundspeed Altitude Reporting Facility
EDT Latitude Longitude Course Direction KTS MPH feet Rate Location/Type
09:21PM -27.4040 153.1120 208° Southwest 2 2  Level FlightAware
09:25PM -27.4050 153.1120 180° South 8 9  Level FlightAware
09:26PM -27.4060 153.1130 138° Southeast 9 10  Level FlightAware
09:28PM -27.4010 153.1160 28° Northeast 19 22  Level FlightAware
09:28PM -27.3990 153.1170 24° Northeast 21 24  Level FlightAware
09:28PM -27.3960 153.1180 16° North 23 26  Level FlightAware
09:29PM -27.3940 153.1200 42° Northeast 16 18  Level FlightAware
09:29PM -27.3920 153.1210 24° Northeast 19 22  Level FlightAware
09:30PM -27.3890 153.1230 31° Northeast 12 14  Level FlightAware
09:33PM -27.2444 153.4558 74° East  Level FlightAware Approximate
09:34PM -27.1895 153.5987 63° Northeast  Level FlightAware Approximate
09:35PM -27.1391 153.7427 68° East  Level FlightAware Approximate
09:36PM -27.0866 153.8872 68° East  Level FlightAware Approximate
09:37PM -27.0340 154.0315 68° East  Level FlightAware Approximate
09:38PM -26.9886 154.1789 71° East  Level FlightAware Approximate
09:39PM -26.9389 154.3243 67° East  Level FlightAware Approximate
09:40PM -26.8850 154.4679 67° East  Level FlightAware Approximate
09:41PM -27.3870 153.1240 42° Northeast 16 18  Level FlightAware
09:41PM -27.3840 153.1250 16° North 22 25  Level FlightAware
09:41PM -27.3820 153.1260 24° Northeast 23 26 60 Level FlightAware
09:42PM -27.3800 153.1280 42° Northeast 25 29 60 Level FlightAware
09:43PM -27.3750 153.1300 20° North 19 22 60 Level FlightAware
09:43PM -27.3730 153.1310 24° Northeast 13 15 60 Level FlightAware
09:44PM -27.3730 153.1330 90° East 60 Level FlightAware
09:46PM -27.3730 153.1340 90° East 1 1 60 Level FlightAware
09:49PM -27.2215 153.5267 63° Northeast  Level FlightAware Approximate
09:50PM -27.1613 153.6816 68° East  Level FlightAware Approximate
09:51PM -27.1040 153.8394 68° East  Level FlightAware Approximate
09:51PM -27.3740 153.1340 68° East 7 8  Level FlightAware
09:51PM -27.3750 153.1340 180° South 21 24 420 Level FlightAware
09:52PM -27.3830 153.1290 209° Southwest 125 144 600 Level FlightAware
09:52PM -27.3980 153.1210 205° Southwest 175 201 1,020 Level FlightAware
09:52PM -27.4120 153.1130 207° Southwest 203 234 700 2,520 Climbing FlightAware
09:53PM -27.4310 153.1020 207° Southwest 203 234 1,700 2,400 Climbing FlightAware
09:53PM -27.4484 153.0924 207° Southwest 205 236 2,300 1,680 Climbing Aus ATC (RADAR)
09:53PM -27.4530 153.0900 207° Southwest 212 244 2,400 1,200 Climbing FlightAware
09:53PM -27.4670 153.0870 191° South 221 254 2,700 1,380 Climbing FlightAware
09:54PM -27.4820 153.0920 164° South 224 258 3,100 1,200 Climbing FlightAware
09:54PM -27.5070 153.1060 154° Southeast 244 281 3,500 900 Climbing FlightAware
09:54PM -27.5200 153.1190 138° Southeast 259 298 3,700 1,020 Climbing FlightAware
09:55PM -27.5460 153.1500 133° Southeast 285 328 4,300 1,860 Climbing FlightAware
09:55PM -27.5570 153.1890 108° East 283 326 5,600 2,400 Climbing FlightAware
09:56PM -27.5660 153.2270 105° East 288 331 6,500 2,100 Climbing FlightAware
09:56PM -27.5740 153.2630 104° East 293 337 7,400 2,100 Climbing FlightAware
09:57PM -27.5670 153.3090 80° East 288 331 8,500 1,680 Climbing FlightAware
09:57PM -27.5563 153.3456 80° East 289 333 8,900 900 Climbing Aus ATC (RADAR)
09:57PM -27.5560 153.3440 80° East 308 354 8,900 1,920 Level FlightAware
09:58PM -27.5260 153.4110 63° Northeast 323 372 10,400 2,040 Climbing FlightAware
09:59PM -27.4930 153.4820 62° Northeast 342 394 11,900 2,160 Climbing FlightAware
09:59PM -27.4640 153.5470 63° Northeast 356 410 13,500 2,220 Climbing FlightAware
10:00PM -27.4203 153.6405 63° Northeast 372 428 15,400 2,040 Climbing Aus ATC (RADAR)
10:00PM -27.4200 153.6410 63° Northeast 379 436 15,400 2,040 Level FlightAware
10:01PM -27.3870 153.7120 62° Northeast 390 449 16,800 1,860 Climbing FlightAware
10:02PM -27.3500 153.7930 63° Northeast 397 457 18,100 1,980 Climbing FlightAware
10:02PM -27.3238 153.8488 63° Northeast 398 458 19,300 1,920 Climbing Aus ATC (RADAR)
10:02PM -27.3160 153.8660 63° Northeast 407 468 19,400 1,680 Climbing FlightAware
10:03PM -27.2933 153.9144 63° Northeast 406 467 20,300 1,860 Climbing Aus ATC (RADAR)
10:03PM -27.2750 153.9540 63° Northeast 416 479 20,800 1,560 Climbing FlightAware
10:04PM -27.2390 154.0320 63° Northeast 424 488 21,900 1,800 Climbing FlightAware
10:04PM -27.2349 154.0402 63° Northeast 423 487 22,100 1,380 Climbing Aus ATC (RADAR)
10:04PM -27.2022 154.1095 63° Northeast 429 494 22,800 960 Climbing Aus ATC (RADAR)
10:04PM -27.1980 154.1190 63° Northeast 440 506 22,800 1,500 Level FlightAware
10:05PM -27.1580 154.2050 62° Northeast 445 512 24,000 1,200 Climbing FlightAware
10:06PM -27.1170 154.2930 62° Northeast 471 542 24,500 540 Climbing FlightAware
10:06PM -27.0793 154.3729 62° Northeast 478 550 24,700 240 Climbing Aus ATC (RADAR)
10:06PM -27.0710 154.3920 62° Northeast 500 575 24,700 1,200 Level FlightAware
10:07PM -27.0415 154.4538 62° Northeast 497 572 25,400 1,320 Climbing Aus ATC (RADAR)
10:07PM -27.0270 154.4850 62° Northeast 510 587 25,600 1,080 Climbing FlightAware
10:08PM -26.9862 154.5719 62° Northeast 516 594 26,300 960 Climbing Aus ATC (RADAR)
10:08PM -26.9800 154.5860 62° Northeast 524 603 26,300 840 Level FlightAware
10:09PM -26.9300 154.6900 62° Northeast 540 621 27,000 900 Climbing FlightAware
10:09PM -26.8880 154.7790 62° Northeast 550 633 27,600 960 Climbing FlightAware
10:10PM -26.8140 154.9350 62° Northeast 566 651 28,600 1,080 Climbing FlightAware
10:11PM -26.7520 155.0660 62° Northeast 573 659 29,600 1,500 Climbing FlightAware
10:12PM -26.7068 155.1710 62° Northeast 568 654 30,800 1,800 Climbing Aus ATC (RADAR)
10:12PM -26.6960 155.1830 62° Northeast 569 655 30,900 240 Climbing FlightAware
10:12PM -26.6490 155.2830 62° Northeast 564 649 31,000 60 Climbing FlightAware
10:13PM -26.5930 155.3980 61° Northeast 567 652 31,000 60 Level FlightAware
10:13PM -26.5683 155.4507 61° Northeast 559 643 31,100  Climbing Aus ATC (RADAR)
10:14PM -26.5510 155.4860 61° Northeast 568 654 31,000  Descending FlightAware
10:14PM -26.5247 155.5410 61° Northeast 559 643 31,100  Climbing Aus ATC (RADAR)
10:15PM -26.4930 155.6060 61° Northeast 568 654 31,000 -120 Descending FlightAware
10:15PM -26.4500 155.6980 61° Northeast 570 656 31,000 120 Level FlightAware
10:15PM -26.4439 155.7088 61° Northeast 559 643 31,100  Climbing Aus ATC (RADAR)
10:16PM -26.3930 155.8510 67° East 577 664 31,000 -120 Descending FlightAware
10:17PM -26.3640 155.9360 69° East 577 664 31,000 60 Level FlightAware
10:17PM -26.3334 156.0437 69° East 568 654 31,100  Climbing Aus ATC (RADAR)
10:17PM -26.3220 156.0780 69° East 580 667 31,000  Descending FlightAware
10:18PM -26.3025 156.1425 69° East 568 654 31,100  Climbing Aus ATC (RADAR)
10:18PM -26.2910 156.1740 69° East 580 667 31,000  Descending FlightAware
10:19PM -26.2524 156.2966 69° East 566 651 31,100  Climbing Aus ATC (RADAR)
10:19PM -26.2530 156.2910 69° East 580 667 31,000  Descending FlightAware
10:19PM -26.2210 156.3951 69° East 567 652 31,100  Climbing Aus ATC (RADAR)
10:20PM -26.2240 156.3770 69° East 580 667 31,000  Descending FlightAware
10:20PM -26.1690 156.5480 69° East 568 654 31,100  Climbing Aus ATC (RADAR)
10:20PM -26.1890 156.4840 69° East 580 667 31,000 -120 Descending FlightAware
10:21PM -26.1530 156.5960 70° East 580 667 31,000  Level FlightAware
10:21PM -26.1081 156.7462 70° East 568 654 31,000  Level Aus ATC (RADAR)
10:22PM -26.1250 156.6820 70° East 580 667 31,000  Level FlightAware
10:22PM -26.0718 156.8591 70° East 569 655 31,000  Level Aus ATC (RADAR)
10:22PM -26.0576 156.9014 69° East 571 657 31,000  Level Aus ATC (RADAR)
10:22PM -26.0860 156.7990 69° East 580 667 31,000  Level FlightAware
10:23PM -26.0267 157.0002 69° East 567 652 31,000  Level Aus ATC (RADAR)
10:23PM -26.0580 156.8850 69° East 580 667 31,000  Level FlightAware
10:24PM -25.9831 157.1255 69° East 568 654 31,000  Level Aus ATC (RADAR)
10:24PM -26.0210 157.0000 69° East 580 667 31,000  Level FlightAware
10:24PM -25.9509 157.2241 69° East 568 654 31,000  Level Aus ATC (RADAR)
10:24PM -25.9930 157.0860 69° East 580 667 31,000  Level FlightAware
10:25PM -25.8962 157.3925 69° East 567 652 31,000  Level Aus ATC (RADAR)
10:25PM -25.9560 157.1980 69° East 580 667 31,000  Level FlightAware
10:26PM -25.9280 157.2830 70° East 580 667 31,000  Level FlightAware
10:27PM -25.8900 157.3980 70° East 580 667 31,000  Level FlightAware
10:27PM -25.7946 157.7019 70° East 569 655 31,000  Level Aus ATC (RADAR)
10:27PM -25.8640 157.4790 70° East 580 667 31,000  Level FlightAware
10:30PM -25.6837 157.7845 57° Northeast  Level Estimated
10:30PM -25.5822 158.3310 69° East 31,000  Level Aus ATC (Calculated)
10:31PM -25.6045 157.9179 57° Northeast  Level Estimated
10:32PM -25.4986 158.4707 56° Northeast  Level Estimated
10:33PM -25.4189 158.6036 56° Northeast  Level Estimated
10:34PM -25.3391 158.7363 56° Northeast  Level Estimated
10:35PM -25.2591 158.8688 56° Northeast  Level Estimated
10:36PM -25.1790 159.0011 56° Northeast  Level Estimated
10:37PM -25.0988 159.1333 56° Northeast  Level Estimated
10:38PM -25.0185 159.2653 56° Northeast  Level Estimated
10:39PM -24.9381 159.3971 56° Northeast  Level Estimated
10:40PM -24.8575 159.5287 56° Northeast  Level Estimated
10:41PM -24.7769 159.6602 56° Northeast  Level Estimated
10:41PM -24.9945 160.0233 68° East 31,000  Level Aus ATC (Calculated)
10:42PM -24.9289 160.2079 68° East 31,000  Level Aus ATC (Calculated)
10:44PM -24.7678 160.4679 56° Northeast  Level Estimated
10:44PM -24.8031 160.5594 68° East 31,000  Level Aus ATC (Calculated)
10:44PM -24.7478 160.7130 68° East 31,000  Level Aus ATC (Calculated)
10:45PM -24.7217 160.6902 56° Northeast  Level Estimated
10:46PM -24.6527 160.8654 56° Northeast  Level Estimated
10:46PM -24.6698 160.9286 68° East 31,000  Level Aus ATC (Calculated)
10:46PM -24.6462 160.9937 68° East 31,000  Level Aus ATC (Calculated)
10:48PM -24.5207 161.1936 55° Northeast  Level Estimated
10:49PM -24.4388 161.3237 55° Northeast  Level Estimated
10:50PM -24.3567 161.4537 55° Northeast  Level Estimated
10:51PM -24.2745 161.5835 55° Northeast  Level Estimated
10:52PM -24.1922 161.7132 55° Northeast  Level Estimated
10:53PM -24.1098 161.8427 55° Northeast  Level Estimated
10:54PM -24.0273 161.9720 55° Northeast  Level Estimated
10:54PM -24.2063 162.1877 67° East 31,000  Level Aus ATC (Calculated)
10:54PM -24.2063 162.1878 67° East 31,000  Level Aus ATC (Calculated)
10:55PM -24.1236 162.3170 55° Northeast  Level Estimated
10:56PM -24.0407 162.4460 55° Northeast  Level Estimated
10:57PM -23.9577 162.5749 55° Northeast  Level Estimated
10:58PM -23.8747 162.7036 55° Northeast  Level Estimated
10:59PM -23.7915 162.8322 55° Northeast  Level Estimated
11:00PM -23.7082 162.9606 55° Northeast  Level Estimated
11:01PM -23.6248 163.0888 55° Northeast  Level Estimated
11:02PM -23.5413 163.2169 55° Northeast  Level Estimated
11:03PM -23.4577 163.3448 55° Northeast  Level Estimated
11:04PM -23.3740 163.4725 54° Northeast  Level Estimated
11:05PM -23.2902 163.6001 54° Northeast  Level Estimated
11:06PM -23.2062 163.7275 54° Northeast  Level Estimated
11:07PM -23.1222 163.8548 54° Northeast  Level Estimated
11:08PM -23.0381 163.9819 54° Northeast  Level Estimated
11:09PM -22.9539 164.1088 54° Northeast  Level Estimated
11:10PM -22.8696 164.2356 54° Northeast  Level Estimated
11:10PM -23.2060 164.7580 54° Northeast 571 657 31,000  Level FlightAware
11:11PM -22.7851 164.3622 54° Northeast  Level Estimated
11:11PM -23.1600 164.8720 66° East 570 656 31,000  Level FlightAware
11:12PM -23.1090 164.9990 66° East 569 655 31,000  Level FlightAware
11:12PM -23.0670 165.1040 67° East 568 654 31,000  Level FlightAware
11:13PM -23.0210 165.2210 67° East 568 654 31,000  Level FlightAware
11:14PM -22.9740 165.3360 66° East 568 654 31,000  Level FlightAware
11:15PM -22.9320 165.4400 66° East 568 654 31,000  Level FlightAware
11:15PM -22.8920 165.5380 66° East 567 652 31,000  Level FlightAware
11:16PM -22.8420 165.6630 67° East 567 652 31,000  Level FlightAware
11:17PM -22.7990 165.7680 66° East 565 650 31,000  Level FlightAware
11:17PM -22.7570 165.8720 66° East 565 650 31,000  Level FlightAware
11:18PM -22.7120 165.9820 66° East 564 649 31,000  Level FlightAware
11:19PM -22.6690 166.0860 66° East 566 651 31,000  Level FlightAware
11:19PM -22.6230 166.1980 66° East 567 652 31,000  Level FlightAware
11:20PM -22.5790 166.3070 66° East 566 651 31,000  Level FlightAware
11:21PM -22.5330 166.4170 66° East 566 651 31,000  Level FlightAware
11:22PM -22.4870 166.5290 66° East 567 652 31,000  Level FlightAware
11:22PM -22.4440 166.6330 66° East 567 652 31,000  Level FlightAware
11:23PM -22.3960 166.7480 66° East 566 651 31,000  Level FlightAware
11:24PM -22.3520 166.8560 66° East 565 650 31,000  Level FlightAware
11:24PM -22.3090 166.9570 65° Northeast 564 649 31,000  Level FlightAware
11:25PM -22.2470 167.1060 66° East 563 648 31,000  Level FlightAware
11:26PM -22.2010 167.2150 66° East 564 649 31,000  Level FlightAware
11:27PM -22.1570 167.3210 66° East 563 648 31,000  Level FlightAware
11:27PM -22.1130 167.4240 65° Northeast 565 650 31,000  Level FlightAware
11:28PM -22.0660 167.5370 66° East 565 650 31,000  Level FlightAware
11:29PM -22.0220 167.6400 65° Northeast 565 650 31,000  Level FlightAware
11:30PM -21.9730 167.7570 66° East 564 649 31,000  Level FlightAware
11:30PM -21.9290 167.8600 65° Northeast 564 649 31,000  Level FlightAware
11:31PM -21.8810 167.9730 65° Northeast 566 651 31,000  Level FlightAware
11:32PM -21.8400 168.0680 65° Northeast 565 650 31,000 240 Level FlightAware
11:32PM -21.7930 168.1800 66° East 565 650 31,400 900 Climbing FlightAware
11:33PM -21.7490 168.2830 65° Northeast 561 646 32,300 1,140 Climbing FlightAware
11:34PM -21.7010 168.3950 65° Northeast 555 639 33,000 480 Climbing FlightAware
11:34PM -21.6580 168.4940 65° Northeast 555 639 33,000  Level FlightAware
11:35PM -21.6120 168.6000 65° Northeast 555 639 33,000  Level FlightAware
11:36PM -21.5630 168.7150 65° Northeast 554 638 33,000  Level FlightAware
11:37PM -21.5200 168.8140 65° Northeast 554 638 33,000  Level FlightAware
11:37PM -21.4780 168.9110 65° Northeast 554 638 33,000  Level FlightAware
11:38PM -21.4290 169.0230 65° Northeast 554 638 33,000  Level FlightAware
11:39PM -21.3890 169.1140 65° Northeast 554 638 33,000  Level FlightAware
11:39PM -21.3560 169.1910 65° Northeast 554 638 33,000  Level FlightAware
11:40PM -21.2910 169.3410 65° Northeast 554 638 33,000  Level FlightAware
11:41PM -21.2460 169.4450 65° Northeast 554 638 33,000  Level FlightAware
11:42PM -21.2140 169.5170 65° Northeast 554 638 33,000  Level FlightAware
11:43PM -21.1700 169.6190 65° Northeast 554 638 33,000  Level FlightAware
11:43PM -21.1330 169.7030 65° Northeast 554 638 33,000  Level FlightAware
11:44PM -21.1000 169.7800 65° Northeast 554 638 33,000  Level FlightAware
11:45PM -21.0560 169.8810 65° Northeast 554 638 33,000  Level FlightAware
11:46PM -20.9790 170.0590 65° Northeast 554 638 33,000  Level FlightAware
11:47PM -20.9450 170.1350 64° Northeast 554 638 33,000  Level FlightAware
11:48PM -20.8990 170.2410 65° Northeast 554 638 33,000  Level FlightAware
11:50PM -20.7796 170.5215 66° East  Level FlightAware Approximate
11:51PM -20.7197 170.6616 65° Northeast  Level FlightAware Approximate
11:52PM -20.6597 170.8015 65° Northeast  Level FlightAware Approximate
11:53PM -20.5996 170.9414 65° Northeast  Level FlightAware Approximate
11:54PM -20.5393 171.0812 65° Northeast  Level FlightAware Approximate
11:55PM -20.4790 171.2208 65° Northeast  Level FlightAware Approximate
11:56PM -20.4185 171.3603 65° Northeast  Level FlightAware Approximate
11:57PM -20.3580 171.4998 65° Northeast  Level FlightAware Approximate
11:58PM -20.2973 171.6391 65° Northeast  Level FlightAware Approximate
11:59PM -20.2365 171.7783 65° Northeast  Level FlightAware Approximate
12:00AM -20.1756 171.9174 65° Northeast  Level FlightAware Approximate
12:01AM -20.1146 172.0564 65° Northeast  Level FlightAware Approximate
12:02AM -20.0535 172.1952 65° Northeast  Level FlightAware Approximate
12:03AM -19.9923 172.3340 65° Northeast  Level FlightAware Approximate
12:04AM -19.9310 172.4727 65° Northeast  Level FlightAware Approximate
12:05AM -19.8695 172.6112 65° Northeast  Level FlightAware Approximate
12:06AM -19.8080 172.7497 65° Northeast  Level FlightAware Approximate
12:07AM -19.7463 172.8880 65° Northeast  Level FlightAware Approximate
12:08AM -19.6846 173.0262 65° Northeast  Level FlightAware Approximate
12:09AM -19.6227 173.1644 65° Northeast  Level FlightAware Approximate
12:10AM -19.5608 173.3024 65° Northeast  Level FlightAware Approximate
12:11AM -19.4987 173.4403 64° Northeast  Level FlightAware Approximate
12:12AM -19.4365 173.5781 64° Northeast  Level FlightAware Approximate
12:13AM -19.3743 173.7158 64° Northeast  Level FlightAware Approximate
12:14AM -19.3119 173.8534 64° Northeast  Level FlightAware Approximate
12:15AM -19.2494 173.9909 64° Northeast  Level FlightAware Approximate
12:16AM -19.1868 174.1283 64° Northeast  Level FlightAware Approximate
12:17AM -19.1241 174.2656 64° Northeast  Level FlightAware Approximate
12:18AM -19.0613 174.4027 64° Northeast  Level FlightAware Approximate
12:19AM -18.9984 174.5398 64° Northeast  Level FlightAware Approximate
12:20AM -18.9354 174.6768 64° Northeast  Level FlightAware Approximate
12:21AM -18.8723 174.8136 64° Northeast  Level FlightAware Approximate
12:22AM -18.8092 174.9504 64° Northeast  Level FlightAware Approximate
12:23AM -18.7459 175.0871 64° Northeast  Level FlightAware Approximate
12:24AM -18.6825 175.2236 64° Northeast  Level FlightAware Approximate
12:25AM -18.6190 175.3601 64° Northeast  Level FlightAware Approximate
12:26AM -18.5554 175.4964 64° Northeast  Level FlightAware Approximate
12:27AM -18.4917 175.6327 64° Northeast  Level FlightAware Approximate
12:28AM -18.4279 175.7688 64° Northeast  Level FlightAware Approximate
12:29AM -18.3640 175.9049 64° Northeast  Level FlightAware Approximate
12:30AM -18.3001 176.0408 64° Northeast  Level FlightAware Approximate
12:31AM -18.2360 176.1767 64° Northeast  Level FlightAware Approximate
12:32AM -18.1718 176.3124 64° Northeast  Level FlightAware Approximate
12:33AM -18.1075 176.4481 64° Northeast  Level FlightAware Approximate
12:34AM -18.0432 176.5836 63° Northeast  Level FlightAware Approximate
12:35AM -17.9787 176.7191 63° Northeast  Level FlightAware Approximate
12:36AM -17.9142 176.8544 63° Northeast  Level FlightAware Approximate
12:37AM -17.8495 176.9897 63° Northeast  Level FlightAware Approximate
12:38AM -17.7848 177.1248 63° Northeast  Level FlightAware Approximate
12:39AM -17.7200 177.2599 63° Northeast  Level FlightAware Approximate
12:40AM -17.6550 177.3949 63° Northeast  Level FlightAware Approximate
12:41AM -17.5632 177.5113 50° Northeast  Level FlightAware Approximate
12:42AM -17.4711 177.6274 50° Northeast  Level FlightAware Approximate
12:43AM -17.3790 177.7435 50° Northeast  Level FlightAware Approximate
12:44AM -17.2868 177.8594 50° Northeast  Level FlightAware Approximate
12:45AM -17.1945 177.9752 50° Northeast  Level FlightAware Approximate
12:46AM -17.1022 178.0909 50° Northeast  Level FlightAware Approximate
12:47AM -17.0098 178.2065 50° Northeast  Level FlightAware Approximate
12:48AM -16.9173 178.3220 50° Northeast  Level FlightAware Approximate
12:49AM -16.8248 178.4373 50° Northeast  Level FlightAware Approximate
12:50AM -16.7322 178.5526 50° Northeast  Level FlightAware Approximate
12:51AM -16.6395 178.6677 50° Northeast  Level FlightAware Approximate
12:52AM -16.5467 178.7826 50° Northeast  Level FlightAware Approximate
12:53AM -16.4535 178.8972 50° Northeast  Level FlightAware Approximate
12:54AM -16.3603 179.0116 50° Northeast  Level FlightAware Approximate
12:55AM -16.2670 179.1260 50° Northeast  Level FlightAware Approximate
12:56AM -16.1737 179.2403 50° Northeast  Level FlightAware Approximate
12:57AM -16.0803 179.3544 50° Northeast  Level FlightAware Approximate
12:58AM -15.9868 179.4684 50° Northeast  Level FlightAware Approximate
12:59AM -15.8933 179.5824 50° Northeast  Level FlightAware Approximate
01:00AM -15.7997 179.6962 49° Northeast  Level FlightAware Approximate
01:01AM -15.7061 179.8099 49° Northeast  Level FlightAware Approximate
01:02AM -15.6124 179.9236 49° Northeast  Level FlightAware Approximate
01:03AM -15.5187 -179.9629 49° Northeast  Level FlightAware Approximate
01:04AM -15.4249 -179.8495 49° Northeast  Level FlightAware Approximate
01:05AM -15.3310 -179.7362 49° Northeast  Level FlightAware Approximate
01:06AM -15.2371 -179.6230 49° Northeast  Level FlightAware Approximate
01:07AM -15.1431 -179.5099 49° Northeast  Level FlightAware Approximate
01:08AM -15.0490 -179.3969 49° Northeast  Level FlightAware Approximate
01:09AM -14.9550 -179.2840 49° Northeast  Level FlightAware Approximate
01:10AM -14.8608 -179.1712 49° Northeast  Level FlightAware Approximate
01:11AM -14.7666 -179.0585 49° Northeast  Level FlightAware Approximate
01:12AM -14.6723 -178.9458 49° Northeast  Level FlightAware Approximate
01:13AM -14.5780 -178.8333 49° Northeast  Level FlightAware Approximate
01:14AM -14.4837 -178.7209 49° Northeast  Level FlightAware Approximate
01:15AM -14.3892 -178.6086 49° Northeast  Level FlightAware Approximate
01:16AM -14.2948 -178.4964 49° Northeast  Level FlightAware Approximate
01:17AM -14.2002 -178.3842 49° Northeast  Level FlightAware Approximate
01:18AM -14.1057 -178.2722 49° Northeast  Level FlightAware Approximate
01:19AM -14.0110 -178.1602 49° Northeast  Level FlightAware Approximate
01:20AM -13.9164 -178.0484 49° Northeast  Level FlightAware Approximate
01:21AM -13.8216 -177.9366 49° Northeast  Level FlightAware Approximate
01:22AM -13.7268 -177.8250 49° Northeast  Level FlightAware Approximate
01:23AM -13.6320 -177.7134 49° Northeast  Level FlightAware Approximate
01:24AM -13.5371 -177.6019 49° Northeast  Level FlightAware Approximate
01:25AM -13.4422 -177.4905 49° Northeast  Level FlightAware Approximate
01:26AM -13.3472 -177.3792 49° Northeast  Level FlightAware Approximate
01:27AM -13.2522 -177.2680 49° Northeast  Level FlightAware Approximate
01:28AM -13.1571 -177.1568 49° Northeast  Level FlightAware Approximate
01:29AM -13.0620 -177.0458 49° Northeast  Level FlightAware Approximate
01:30AM -12.9668 -176.9348 49° Northeast  Level FlightAware Approximate
01:31AM -12.8716 -176.8239 49° Northeast  Level FlightAware Approximate
01:32AM -12.7763 -176.7131 49° Northeast  Level FlightAware Approximate
01:33AM -12.6810 -176.6024 49° Northeast  Level FlightAware Approximate
01:34AM -12.5856 -176.4918 49° Northeast  Level FlightAware Approximate
01:35AM -12.4902 -176.3813 49° Northeast  Level FlightAware Approximate
01:36AM -12.3947 -176.2708 49° Northeast  Level FlightAware Approximate
01:37AM -12.2992 -176.1604 48° Northeast  Level FlightAware Approximate
01:38AM -12.2037 -176.0501 48° Northeast  Level FlightAware Approximate
01:39AM -12.1081 -175.9399 48° Northeast  Level FlightAware Approximate
01:40AM -12.0125 -175.8298 48° Northeast  Level FlightAware Approximate
01:41AM -11.9168 -175.7197 48° Northeast  Level FlightAware Approximate
01:42AM -11.8210 -175.6097 48° Northeast  Level FlightAware Approximate
01:43AM -11.7253 -175.4998 48° Northeast  Level FlightAware Approximate
01:44AM -11.6295 -175.3900 48° Northeast  Level FlightAware Approximate
01:45AM -11.5336 -175.2802 48° Northeast  Level FlightAware Approximate
01:46AM -11.4377 -175.1706 48° Northeast  Level FlightAware Approximate
01:47AM -11.3418 -175.0609 48° Northeast  Level FlightAware Approximate
01:48AM -11.2458 -174.9514 48° Northeast  Level FlightAware Approximate
01:49AM -11.1498 -174.8420 48° Northeast  Level FlightAware Approximate
01:50AM -11.0538 -174.7326 48° Northeast  Level FlightAware Approximate
01:51AM -10.9577 -174.6233 48° Northeast  Level FlightAware Approximate
01:52AM -10.8616 -174.5140 48° Northeast  Level FlightAware Approximate
01:53AM -10.7654 -174.4048 48° Northeast  Level FlightAware Approximate
01:54AM -10.6692 -174.2957 48° Northeast  Level FlightAware Approximate
01:55AM -10.5730 -174.1867 48° Northeast  Level FlightAware Approximate
01:56AM -10.4767 -174.0777 48° Northeast  Level FlightAware Approximate
01:57AM -10.3804 -173.9688 48° Northeast  Level FlightAware Approximate
01:58AM -10.2840 -173.8600 48° Northeast  Level FlightAware Approximate
01:59AM -10.1876 -173.7512 48° Northeast  Level FlightAware Approximate
02:00AM -10.0912 -173.6425 48° Northeast  Level FlightAware Approximate
02:01AM -9.9947 -173.5339 48° Northeast  Level FlightAware Approximate
02:02AM -9.8982 -173.4253 48° Northeast  Level FlightAware Approximate
02:03AM -9.8017 -173.3168 48° Northeast  Level FlightAware Approximate
02:04AM -9.7051 -173.2084 48° Northeast  Level FlightAware Approximate
02:05AM -9.6085 -173.1000 48° Northeast  Level FlightAware Approximate
02:06AM -9.5119 -172.9917 48° Northeast  Level FlightAware Approximate
02:07AM -9.4153 -172.8834 48° Northeast  Level FlightAware Approximate
02:08AM -9.3186 -172.7752 48° Northeast  Level FlightAware Approximate
02:09AM -9.2257 -172.6711 48° Northeast  Level FlightAware Approximate
02:10AM -9.1327 -172.5670 48° Northeast  Level FlightAware Approximate
02:11AM -9.0397 -172.4630 48° Northeast  Level FlightAware Approximate
02:12AM -8.9466 -172.3591 48° Northeast  Level FlightAware Approximate
02:13AM -8.8536 -172.2552 48° Northeast  Level FlightAware Approximate
02:14AM -8.7605 -172.1514 48° Northeast  Level FlightAware Approximate
02:15AM -8.6673 -172.0476 48° Northeast  Level FlightAware Approximate
02:16AM -8.5742 -171.9439 48° Northeast  Level FlightAware Approximate
02:17AM -8.4810 -171.8402 48° Northeast  Level FlightAware Approximate
02:18AM -8.3878 -171.7366 48° Northeast  Level FlightAware Approximate
02:19AM -8.2945 -171.6330 48° Northeast  Level FlightAware Approximate
02:20AM -8.2013 -171.5294 48° Northeast  Level FlightAware Approximate
02:21AM -8.1080 -171.4260 48° Northeast  Level FlightAware Approximate
02:22AM -8.0147 -171.3225 48° Northeast  Level FlightAware Approximate
02:23AM -7.9213 -171.2192 48° Northeast  Level FlightAware Approximate
02:24AM -7.8280 -171.1158 48° Northeast  Level FlightAware Approximate
02:25AM -7.7346 -171.0125 48° Northeast  Level FlightAware Approximate
02:26AM -7.6412 -170.9093 48° Northeast  Level FlightAware Approximate
02:27AM -7.5477 -170.8061 48° Northeast  Level FlightAware Approximate
02:28AM -7.4542 -170.7029 48° Northeast  Level FlightAware Approximate
02:29AM -7.3608 -170.5998 48° Northeast  Level FlightAware Approximate
02:30AM -7.2673 -170.4968 48° Northeast  Level FlightAware Approximate
02:31AM -7.1737 -170.3937 48° Northeast  Level FlightAware Approximate
02:32AM -7.0802 -170.2908 48° Northeast  Level FlightAware Approximate
02:33AM -6.9866 -170.1878 48° Northeast  Level FlightAware Approximate
02:34AM -6.8930 -170.0849 48° Northeast  Level FlightAware Approximate
02:35AM -6.7993 -169.9821 47° Northeast  Level FlightAware Approximate
02:36AM -6.7057 -169.8792 47° Northeast  Level FlightAware Approximate
02:37AM -6.6120 -169.7765 47° Northeast  Level FlightAware Approximate
02:38AM -6.5183 -169.6737 47° Northeast  Level FlightAware Approximate
02:39AM -6.4246 -169.5710 47° Northeast  Level FlightAware Approximate
02:40AM -6.3309 -169.4684 47° Northeast  Level FlightAware Approximate
02:41AM -6.2371 -169.3657 47° Northeast  Level FlightAware Approximate
02:42AM -6.1434 -169.2632 47° Northeast  Level FlightAware Approximate
02:43AM -6.0496 -169.1606 47° Northeast  Level FlightAware Approximate
02:44AM -5.9558 -169.0581 47° Northeast  Level FlightAware Approximate
02:45AM -5.8619 -168.9556 47° Northeast  Level FlightAware Approximate
02:46AM -5.7681 -168.8531 47° Northeast  Level FlightAware Approximate
02:47AM -5.6742 -168.7507 47° Northeast  Level FlightAware Approximate
02:48AM -5.5803 -168.6484 47° Northeast  Level FlightAware Approximate
02:49AM -5.4864 -168.5460 47° Northeast  Level FlightAware Approximate
02:50AM -5.3925 -168.4437 47° Northeast  Level FlightAware Approximate
02:51AM -5.2986 -168.3414 47° Northeast  Level FlightAware Approximate
02:52AM -5.2046 -168.2392 47° Northeast  Level FlightAware Approximate
02:52AM -5.0000 -168.0167 47° Northeast 503 579 34,000  Level Oakland Oceanic (ODAPS)
02:53AM -5.1106 -168.1369 47° Northeast  Level FlightAware Approximate
02:54AM -5.0166 -168.0348 47° Northeast  Level FlightAware Approximate
02:55AM -4.9225 -167.9327 47° Northeast  Level FlightAware Approximate
02:56AM -4.8283 -167.8308 47° Northeast  Level FlightAware Approximate
02:57AM -4.7341 -167.7288 47° Northeast  Level FlightAware Approximate
02:58AM -4.6399 -167.6269 47° Northeast  Level FlightAware Approximate
02:59AM -4.3312 -167.2933 47° Northeast 503 579 34,000  Level FlightAware Transoceanic
03:00AM -4.2356 -167.1901 47° Northeast 503 579 34,000  Level FlightAware Transoceanic
03:00AM -4.2667 -167.2333 47° Northeast 506 582 34,000  Level Oakland Oceanic (ODAPS)
03:01AM -4.1400 -167.0869 47° Northeast 503 579 34,000  Level FlightAware Transoceanic
03:02AM -4.0443 -166.9837 47° Northeast 503 579 34,000  Level FlightAware Transoceanic
03:03AM -3.9487 -166.8806 47° Northeast 503 579 34,000  Level FlightAware Transoceanic
03:04AM -3.8530 -166.7775 47° Northeast 503 579 34,000  Level FlightAware Transoceanic
03:05AM -3.7574 -166.6744 47° Northeast 503 579 34,000  Level FlightAware Transoceanic
03:06AM -3.6868 -166.6061 47° Northeast 506 582 34,000  Level FlightAware Transoceanic
03:07AM -3.5901 -166.5016 47° Northeast 506 582 34,000  Level FlightAware Transoceanic
03:08AM -3.4934 -166.3972 47° Northeast 506 582 34,000  Level FlightAware Transoceanic
03:09AM -3.3967 -166.2928 47° Northeast 506 582 34,000  Level FlightAware Transoceanic
03:10AM -3.2999 -166.1884 47° Northeast 506 582 34,000  Level FlightAware Transoceanic
03:11AM -3.2032 -166.0840 47° Northeast 506 582 34,000  Level FlightAware Transoceanic
03:12AM -3.1065 -165.9797 47° Northeast 506 582 34,000  Level FlightAware Transoceanic
03:13AM -3.0097 -165.8754 47° Northeast 506 582 34,000  Level FlightAware Transoceanic
03:13AM -2.9333 -165.8000 47° Northeast 510 587 34,000  Level Oakland Oceanic (ODAPS)
03:14AM -2.9129 -165.7711 47° Northeast 506 582 34,000  Level FlightAware Transoceanic
03:15AM -2.8162 -165.6668 47° Northeast 506 582 34,000  Level FlightAware Transoceanic
03:16AM -2.7194 -165.5625 47° Northeast 506 582 34,000  Level FlightAware Transoceanic
03:17AM -2.6226 -165.4582 47° Northeast 506 582 34,000  Level FlightAware Transoceanic
03:18AM -2.5258 -165.3540 47° Northeast 506 582 34,000  Level FlightAware Transoceanic
03:19AM -2.4290 -165.2498 47° Northeast 506 582 34,000  Level FlightAware Transoceanic
03:20AM -2.3453 -165.1642 47° Northeast 510 587 34,000  Level FlightAware Transoceanic
03:21AM -2.2473 -165.0583 47° Northeast 510 587 34,000  Level FlightAware Transoceanic
03:22AM -2.1493 -164.9525 47° Northeast 510 587 34,000  Level FlightAware Transoceanic
03:23AM -2.0512 -164.8466 47° Northeast 510 587 34,000  Level FlightAware Transoceanic
03:24AM -1.9532 -164.7407 47° Northeast 510 587 34,000  Level FlightAware Transoceanic
03:25AM -1.8551 -164.6349 47° Northeast 510 587 34,000  Level FlightAware Transoceanic
03:26AM -1.7571 -164.5290 47° Northeast 510 587 34,000  Level FlightAware Transoceanic
03:27AM -1.6590 -164.4232 47° Northeast 510 587 34,000  Level FlightAware Transoceanic
03:27AM -1.6000 -164.3667 48° Northeast 505 581 34,000  Level Oakland Oceanic (ODAPS)
03:28AM -1.5609 -164.3174 47° Northeast 510 587 34,000  Level FlightAware Transoceanic
03:29AM -1.4628 -164.2116 47° Northeast 510 587 34,000  Level FlightAware Transoceanic
03:30AM -1.3648 -164.1058 47° Northeast 510 587 34,000  Level FlightAware Transoceanic
03:31AM -1.2667 -164.0000 47° Northeast 510 587 34,000  Level FlightAware Transoceanic
03:31AM -1.2667 -164.0000 47° Northeast 512 589 34,000  Level Oakland Oceanic (ODAPS)
03:32AM -1.1702 -163.8963 47° Northeast 510 587 34,000  Level FlightAware Transoceanic
03:33AM -1.0737 -163.7926 47° Northeast 510 587 34,000  Level FlightAware Transoceanic
03:34AM -0.9772 -163.6890 47° Northeast 505 581 34,000  Level FlightAware Transoceanic
03:35AM -0.8806 -163.5853 47° Northeast 505 581 34,000  Level FlightAware Transoceanic
03:36AM -0.7841 -163.4817 47° Northeast 505 581 34,000  Level FlightAware Transoceanic
03:37AM -0.6876 -163.3780 47° Northeast 512 589 34,000  Level FlightAware Transoceanic
03:38AM -0.5911 -163.2744 47° Northeast 512 589 34,000  Level FlightAware Transoceanic
03:39AM -0.4946 -163.1707 47° Northeast 512 589 34,000  Level FlightAware Transoceanic
03:40AM -0.3981 -163.0671 47° Northeast 512 589 34,000  Level FlightAware Transoceanic
03:41AM -0.3015 -162.9635 47° Northeast 512 589 34,000 360 Level FlightAware Transoceanic
03:41AM -0.2833 -162.9333 47° Northeast 512 589 34,700  Climbing Oakland Oceanic (ODAPS)
03:42AM -0.2050 -162.8598 47° Northeast 512 589 34,000 -660 Descending FlightAware Transoceanic
03:43AM -0.1085 -162.7562 47° Northeast 512 589 34,000  Level FlightAware Transoceanic
03:44AM -0.0120 -162.6526 47° Northeast 512 589 34,000  Level FlightAware Transoceanic
03:45AM 0.0846 -162.5489 47° Northeast 512 589 34,000  Level FlightAware Transoceanic
03:46AM 0.1811 -162.4453 47° Northeast 512 589 34,000  Level FlightAware Transoceanic
03:47AM 0.2776 -162.3417 47° Northeast 512 589 34,000 300 Level FlightAware Transoceanic
03:48AM 0.3045 -162.3034 47° Northeast 512 589 34,700 300 Climbing FlightAware Transoceanic
03:49AM 0.4025 -162.1984 47° Northeast 512 589 34,700  Level FlightAware Transoceanic
03:50AM 0.5005 -162.0934 47° Northeast 512 589 34,700  Level FlightAware Transoceanic
03:51AM 0.5984 -161.9884 47° Northeast 512 589 34,700  Level FlightAware Transoceanic
03:52AM 0.6964 -161.8834 47° Northeast 512 589 34,700  Level FlightAware Transoceanic
03:53AM 0.7944 -161.7784 47° Northeast 512 589 34,700  Level FlightAware Transoceanic
03:54AM 0.8923 -161.6733 47° Northeast 512 589 34,700  Level FlightAware Transoceanic
03:55AM 0.9903 -161.5683 47° Northeast 512 589 34,700 180 Level FlightAware Transoceanic
03:55AM 1.0833 -161.4833 47° Northeast 519 597 35,000  Climbing Oakland Oceanic (ODAPS)
03:56AM 1.0883 -161.4633 47° Northeast 512 589 34,700 -240 Descending FlightAware Transoceanic
03:57AM 1.1862 -161.3582 47° Northeast 512 589 34,700  Level FlightAware Transoceanic
03:58AM 1.2842 -161.2532 47° Northeast 512 589 34,700  Level FlightAware Transoceanic
03:59AM 1.3821 -161.1481 47° Northeast 512 589 34,700  Level FlightAware Transoceanic
04:00AM 1.4800 -161.0431 47° Northeast 512 589 34,700 120 Level FlightAware Transoceanic
04:01AM 1.6717 -160.8500 47° Northeast 519 597 35,000 120 Climbing FlightAware Transoceanic
04:02AM 1.7698 -160.7444 47° Northeast 519 597 35,000  Level FlightAware Transoceanic
04:03AM 1.8678 -160.6388 47° Northeast 519 597 35,000  Level FlightAware Transoceanic
04:04AM 1.9659 -160.5332 47° Northeast 519 597 35,000  Level FlightAware Transoceanic
04:05AM 2.0639 -160.4276 47° Northeast 519 597 35,000  Level FlightAware Transoceanic
04:06AM 2.1619 -160.3219 47° Northeast 519 597 35,000  Level FlightAware Transoceanic
04:07AM 2.2599 -160.2163 47° Northeast 519 597 35,000  Level FlightAware Transoceanic
04:08AM 2.3579 -160.1106 47° Northeast 519 597 35,000  Level FlightAware Transoceanic
04:09AM 2.4559 -160.0049 47° Northeast 519 597 35,000  Level FlightAware Transoceanic
04:09AM 2.4500 -160.0167 47° Northeast 521 600 35,000  Level Oakland Oceanic (ODAPS)
04:10AM 2.5539 -159.8992 47° Northeast 519 597 35,000  Level FlightAware Transoceanic
04:11AM 2.6519 -159.7935 47° Northeast 519 597 35,000  Level FlightAware Transoceanic
04:12AM 2.7499 -159.6878 47° Northeast 519 597 35,000  Level FlightAware Transoceanic
04:13AM 2.8478 -159.5821 47° Northeast 519 597 35,000  Level FlightAware Transoceanic
04:14AM 2.9458 -159.4763 47° Northeast 519 597 35,000  Level FlightAware Transoceanic
04:15AM 3.0437 -159.3705 47° Northeast 519 597 35,000  Level FlightAware Transoceanic
04:16AM 3.1374 -159.2733 47° Northeast 521 600 35,000  Level FlightAware Transoceanic
04:17AM 3.2355 -159.1670 47° Northeast 521 600 35,000  Level FlightAware Transoceanic
04:18AM 3.3336 -159.0607 47° Northeast 521 600 35,000  Level FlightAware Transoceanic
04:19AM 3.4318 -158.9544 47° Northeast 521 600 35,000  Level FlightAware Transoceanic
04:20AM 3.5299 -158.8481 47° Northeast 521 600 35,000  Level FlightAware Transoceanic
04:21AM 3.6280 -158.7417 47° Northeast 521 600 35,000  Level FlightAware Transoceanic
04:22AM 3.7261 -158.6353 47° Northeast 521 600 35,000  Level FlightAware Transoceanic
04:23AM 3.8242 -158.5289 47° Northeast 521 600 35,000  Level FlightAware Transoceanic
04:23AM 3.8000 -158.5500 47° Northeast 525 604 35,000  Level Oakland Oceanic (ODAPS)
04:24AM 3.9222 -158.4225 47° Northeast 521 600 35,000  Level FlightAware Transoceanic
04:25AM 4.0203 -158.3161 47° Northeast 521 600 35,000  Level FlightAware Transoceanic
04:26AM 4.1183 -158.2096 47° Northeast 521 600 35,000  Level FlightAware Transoceanic
04:27AM 4.2164 -158.1031 47° Northeast 521 600 35,000  Level FlightAware Transoceanic
04:28AM 4.3144 -157.9965 47° Northeast 521 600 35,000  Level FlightAware Transoceanic
04:29AM 4.4003 -157.9005 47° Northeast 525 604 35,000  Level FlightAware Transoceanic
04:30AM 4.5003 -157.7922 47° Northeast 525 604 35,000  Level FlightAware Transoceanic
04:31AM 4.6002 -157.6838 47° Northeast 525 604 35,000  Level FlightAware Transoceanic
04:32AM 4.7002 -157.5754 47° Northeast 525 604 35,000  Level FlightAware Transoceanic
04:33AM 4.8002 -157.4670 47° Northeast 525 604 35,000  Level FlightAware Transoceanic
04:33AM 4.7500 -157.5167 47° Northeast 578 665 35,000  Level Oakland Oceanic (ODAPS)
04:33AM 4.7667 -157.5000 47° Northeast 587 676 35,000  Level Oakland Oceanic (ODAPS)
04:34AM 4.9001 -157.3585 47° Northeast 525 604 35,000  Level FlightAware Transoceanic
04:35AM 5.0000 -157.2500 47° Northeast 525 604 35,000  Level FlightAware Transoceanic
04:35AM 5.0000 -157.2500 47° Northeast 511 588 35,000  Level Oakland Oceanic (ODAPS)
04:36AM 5.0953 -157.1465 47° Northeast 525 604 35,000  Level FlightAware Transoceanic
04:37AM 5.1905 -157.0431 47° Northeast 525 604 35,000  Level FlightAware Transoceanic
04:37AM 5.1167 -157.1167 47° Northeast 513 590 35,000  Level Oakland Oceanic (ODAPS)
04:38AM 5.2857 -156.9395 47° Northeast 525 604 35,000  Level FlightAware Transoceanic
04:39AM 5.3810 -156.8360 47° Northeast 587 676 35,000  Level FlightAware Transoceanic
04:40AM 5.4762 -156.7324 47° Northeast 587 676 35,000  Level FlightAware Transoceanic
04:41AM 5.5714 -156.6288 47° Northeast 587 676 35,000  Level FlightAware Transoceanic
04:42AM 5.5892 -156.6094 47° Northeast 511 588 35,000  Level FlightAware Transoceanic
04:43AM 5.7022 -156.4810 47° Northeast 513 590 35,000  Level FlightAware Transoceanic
04:44AM 5.7997 -156.3749 47° Northeast 513 590 35,000  Level FlightAware Transoceanic
04:45AM 5.8972 -156.2688 47° Northeast 513 590 35,000  Level FlightAware Transoceanic
04:46AM 5.9946 -156.1626 47° Northeast 513 590 35,000  Level FlightAware Transoceanic
04:47AM 6.0921 -156.0564 47° Northeast 513 590 35,000  Level FlightAware Transoceanic
04:48AM 6.1895 -155.9502 47° Northeast 513 590 35,000  Level FlightAware Transoceanic
04:49AM 6.2870 -155.8439 47° Northeast 513 590 35,000  Level FlightAware Transoceanic
04:50AM 6.3843 -155.7377 47° Northeast 513 590 35,000  Level FlightAware Transoceanic
04:51AM 6.4817 -155.6313 47° Northeast 513 590 35,000  Level FlightAware Transoceanic
04:51AM 6.4167 -155.7167 48° Northeast 517 595 35,000  Level Oakland Oceanic (ODAPS)
04:52AM 6.5791 -155.5249 47° Northeast 513 590 35,000  Level FlightAware Transoceanic
04:53AM 6.6764 -155.4185 47° Northeast 513 590 35,000  Level FlightAware Transoceanic
04:54AM 6.7737 -155.3120 47° Northeast 513 590 35,000  Level FlightAware Transoceanic
04:55AM 6.8710 -155.2055 47° Northeast 513 590 35,000  Level FlightAware Transoceanic
04:56AM 6.9682 -155.0990 47° Northeast 513 590 35,000  Level FlightAware Transoceanic
04:57AM 6.9898 -155.0849 48° Northeast 517 595 35,000  Level FlightAware Transoceanic
04:58AM 7.0852 -154.9795 48° Northeast 517 595 35,000  Level FlightAware Transoceanic
04:59AM 7.1806 -154.8740 48° Northeast 517 595 35,000  Level FlightAware Transoceanic
05:00AM 7.2760 -154.7685 48° Northeast 517 595 35,000  Level FlightAware Transoceanic
05:01AM 7.3713 -154.6629 48° Northeast 517 595 35,000  Level FlightAware Transoceanic
05:02AM 7.4667 -154.5573 48° Northeast 517 595 35,000  Level FlightAware Transoceanic
05:03AM 7.5620 -154.4516 48° Northeast 517 595 35,000  Level FlightAware Transoceanic
05:04AM 7.6573 -154.3459 48° Northeast 517 595 35,000  Level FlightAware Transoceanic
05:05AM 7.7526 -154.2402 48° Northeast 517 595 35,000  Level FlightAware Transoceanic
05:05AM 7.7167 -154.2833 48° Northeast 512 589 35,000  Level Oakland Oceanic (ODAPS)
05:06AM 7.8478 -154.1344 48° Northeast 517 595 35,000  Level FlightAware Transoceanic
05:07AM 7.9430 -154.0285 48° Northeast 517 595 35,000  Level FlightAware Transoceanic
05:08AM 8.0382 -153.9226 48° Northeast 517 595 35,000  Level FlightAware Transoceanic
05:09AM 8.1333 -153.8167 48° Northeast 517 595 35,000  Level FlightAware Transoceanic
05:09AM 8.1333 -153.8167 48° Northeast 510 587 35,000  Level Oakland Oceanic (ODAPS)
05:10AM 8.2283 -153.7117 48° Northeast 517 595 35,000  Level FlightAware Transoceanic
05:11AM 8.3233 -153.6066 48° Northeast 512 589 35,000  Level FlightAware Transoceanic
05:12AM 8.4182 -153.5015 48° Northeast 512 589 35,000  Level FlightAware Transoceanic
05:13AM 8.5131 -153.3963 48° Northeast 512 589 35,000  Level FlightAware Transoceanic
05:14AM 8.6080 -153.2911 48° Northeast 512 589 35,000  Level FlightAware Transoceanic
05:15AM 8.7029 -153.1858 48° Northeast 510 587 35,000  Level FlightAware Transoceanic
05:16AM 8.7977 -153.0805 48° Northeast 510 587 35,000  Level FlightAware Transoceanic
05:17AM 8.8925 -152.9751 48° Northeast 510 587 35,000  Level FlightAware Transoceanic
05:18AM 8.9872 -152.8696 48° Northeast 510 587 35,000  Level FlightAware Transoceanic
05:18AM 9.0500 -152.8000 48° Northeast 502 578 35,000  Level Oakland Oceanic (ODAPS)
05:19AM 9.0820 -152.7641 48° Northeast 510 587 35,000  Level FlightAware Transoceanic
05:20AM 9.1767 -152.6586 48° Northeast 510 587 35,000  Level FlightAware Transoceanic
05:21AM 9.2713 -152.5530 48° Northeast 510 587 35,000  Level FlightAware Transoceanic
05:22AM 9.3660 -152.4473 48° Northeast 510 587 35,000  Level FlightAware Transoceanic
05:23AM 9.4606 -152.3416 48° Northeast 510 587 35,000  Level FlightAware Transoceanic
05:24AM 9.5552 -152.2358 48° Northeast 510 587 35,000  Level FlightAware Transoceanic
05:25AM 9.6252 -152.1577 48° Northeast 502 578 35,000  Level FlightAware Transoceanic
05:26AM 9.7209 -152.0504 48° Northeast 502 578 35,000  Level FlightAware Transoceanic
05:27AM 9.8166 -151.9431 48° Northeast 502 578 35,000  Level FlightAware Transoceanic
05:28AM 9.9123 -151.8357 48° Northeast 502 578 35,000  Level FlightAware Transoceanic
05:29AM 10.0079 -151.7282 48° Northeast 502 578 35,000  Level FlightAware Transoceanic
05:30AM 10.1036 -151.6207 48° Northeast 502 578 35,000  Level FlightAware Transoceanic
05:31AM 10.1991 -151.5132 48° Northeast 502 578 35,000  Level FlightAware Transoceanic
05:32AM 10.2947 -151.4055 48° Northeast 502 578 35,000  Level FlightAware Transoceanic
05:32AM 10.3500 -151.3500 48° Northeast 495 570 35,000  Level Oakland Oceanic (ODAPS)
05:33AM 10.3902 -151.2978 48° Northeast 502 578 35,000  Level FlightAware Transoceanic
05:34AM 10.4857 -151.1900 48° Northeast 502 578 35,000  Level FlightAware Transoceanic
05:35AM 10.5811 -151.0822 48° Northeast 502 578 35,000  Level FlightAware Transoceanic
05:36AM 10.6765 -150.9743 48° Northeast 502 578 35,000  Level FlightAware Transoceanic
05:37AM 10.7718 -150.8663 48° Northeast 502 578 35,000  Level FlightAware Transoceanic
05:38AM 10.8438 -150.7888 48° Northeast 495 570 35,000  Level FlightAware Transoceanic
05:39AM 10.9424 -150.6763 48° Northeast 495 570 35,000  Level FlightAware Transoceanic
05:40AM 11.0410 -150.5638 48° Northeast 495 570 35,000  Level FlightAware Transoceanic
05:41AM 11.1396 -150.4512 48° Northeast 495 570 35,000  Level FlightAware Transoceanic
05:42AM 11.2381 -150.3385 48° Northeast 495 570 35,000  Level FlightAware Transoceanic
05:43AM 11.3365 -150.2258 48° Northeast 495 570 35,000  Level FlightAware Transoceanic
05:44AM 11.4349 -150.1129 48° Northeast 495 570 35,000  Level FlightAware Transoceanic
05:45AM 11.5333 -150.0000 48° Northeast 495 570 35,000  Level FlightAware Transoceanic
05:45AM 11.5333 -150.0000 48° Northeast 495 570 35,000  Level Oakland Oceanic (ODAPS)
05:46AM 11.6246 -149.8951 48° Northeast 495 570 35,000  Level FlightAware Transoceanic
05:46AM 11.6167 -149.9167 48° Northeast 494 568 35,000  Level Oakland Oceanic (ODAPS)
05:47AM 11.7159 -149.7900 48° Northeast 495 570 35,000  Level FlightAware Transoceanic
05:48AM 11.8071 -149.6850 48° Northeast 495 570 35,000  Level FlightAware Transoceanic
05:49AM 11.8983 -149.5798 48° Northeast 495 570 35,000  Level FlightAware Transoceanic
05:50AM 11.9894 -149.4746 48° Northeast 495 570 35,000  Level FlightAware Transoceanic
05:51AM 12.0021 -149.4599 48° Northeast 495 570 35,000  Level FlightAware Transoceanic
05:52AM 12.1502 -149.2992 49° Northeast 494 568 35,000  Level FlightAware Transoceanic
05:53AM 12.2390 -149.1960 49° Northeast 494 568 35,000  Level FlightAware Transoceanic
05:54AM 12.3277 -149.0928 49° Northeast 494 568 35,000  Level FlightAware Transoceanic
05:55AM 12.4164 -148.9895 49° Northeast 494 568 35,000  Level FlightAware Transoceanic
05:56AM 12.5051 -148.8861 49° Northeast 494 568 35,000  Level FlightAware Transoceanic
05:57AM 12.5938 -148.7827 49° Northeast 494 568 35,000  Level FlightAware Transoceanic
05:58AM 12.6824 -148.6792 49° Northeast 494 568 35,000  Level FlightAware Transoceanic
05:59AM 12.7709 -148.5756 49° Northeast 494 568 35,000  Level FlightAware Transoceanic
06:00AM 12.8594 -148.4719 49° Northeast 494 568 35,000  Level FlightAware Transoceanic
06:00AM 12.8833 -148.4500 49° Northeast 497 572 35,000  Level Oakland Oceanic (ODAPS)
06:01AM 12.9479 -148.3682 49° Northeast 494 568 35,000  Level FlightAware Transoceanic
06:02AM 13.0363 -148.2644 49° Northeast 494 568 35,000  Level FlightAware Transoceanic
06:03AM 13.1247 -148.1606 49° Northeast 494 568 35,000  Level FlightAware Transoceanic
06:04AM 13.2131 -148.0566 49° Northeast 494 568 35,000  Level FlightAware Transoceanic
06:05AM 13.3014 -147.9526 49° Northeast 494 568 35,000  Level FlightAware Transoceanic
06:06AM 13.4311 -147.8040 49° Northeast 497 572 35,000  Level FlightAware Transoceanic
06:07AM 13.5222 -147.6961 49° Northeast 497 572 35,000  Level FlightAware Transoceanic
06:08AM 13.6133 -147.5881 49° Northeast 497 572 35,000  Level FlightAware Transoceanic
06:09AM 13.7043 -147.4799 49° Northeast 497 572 35,000  Level FlightAware Transoceanic
06:10AM 13.7953 -147.3717 49° Northeast 497 572 35,000  Level FlightAware Transoceanic
06:11AM 13.8862 -147.2635 49° Northeast 497 572 35,000  Level FlightAware Transoceanic
06:12AM 13.9771 -147.1551 49° Northeast 497 572 35,000  Level FlightAware Transoceanic
06:13AM 14.0680 -147.0467 49° Northeast 497 572 35,000  Level FlightAware Transoceanic
06:14AM 14.1587 -146.9381 49° Northeast 497 572 35,000 1,500 Level FlightAware Transoceanic
06:14AM 14.1167 -146.9833 49° Northeast 488 562 37,000  Climbing Oakland Oceanic (ODAPS)
06:15AM 14.2495 -146.8295 49° Northeast 497 572 35,000 -1,200 Descending FlightAware Transoceanic
06:16AM 14.3402 -146.7208 49° Northeast 497 572 35,000  Level FlightAware Transoceanic
06:17AM 14.4309 -146.6120 49° Northeast 497 572 35,000  Level FlightAware Transoceanic
06:18AM 14.5215 -146.5031 49° Northeast 497 572 35,000  Level FlightAware Transoceanic
06:19AM 14.6120 -146.3941 49° Northeast 497 572 35,000 960 Level FlightAware Transoceanic
06:20AM 14.6282 -146.3729 49° Northeast 488 562 37,000 960 Climbing FlightAware Transoceanic
06:21AM 14.7133 -146.2709 49° Northeast 488 562 37,000  Level FlightAware Transoceanic
06:22AM 14.7983 -146.1688 49° Northeast 488 562 37,000  Level FlightAware Transoceanic
06:23AM 14.8833 -146.0667 49° Northeast 488 562 37,000  Level FlightAware Transoceanic
06:23AM 14.8833 -146.0667 49° Northeast 486 559 37,000  Level Oakland Oceanic (ODAPS)
06:24AM 14.9713 -145.9613 49° Northeast 488 562 37,000  Level FlightAware Transoceanic
06:25AM 15.0592 -145.8559 49° Northeast 488 562 37,000  Level FlightAware Transoceanic
06:26AM 15.1471 -145.7504 49° Northeast 488 562 37,000  Level FlightAware Transoceanic
06:27AM 15.2350 -145.6447 49° Northeast 488 562 37,000  Level FlightAware Transoceanic
06:28AM 15.3228 -145.5390 49° Northeast 488 562 37,000  Level FlightAware Transoceanic
06:28AM 15.3500 -145.5333 49° Northeast 485 558 37,000  Level Oakland Oceanic (ODAPS)
06:29AM 15.4191 -145.4228 49° Northeast 486 559 37,000  Level FlightAware Transoceanic
06:30AM 15.5082 -145.3152 49° Northeast 486 559 37,000  Level FlightAware Transoceanic
06:31AM 15.5973 -145.2075 49° Northeast 486 559 37,000  Level FlightAware Transoceanic
06:32AM 15.6863 -145.0997 49° Northeast 486 559 37,000  Level FlightAware Transoceanic
06:33AM 15.7753 -144.9918 49° Northeast 486 559 37,000  Level FlightAware Transoceanic
06:34AM 15.8728 -144.8978 50° Northeast 485 558 37,000  Level FlightAware Transoceanic
06:35AM 15.9597 -144.7915 50° Northeast 485 558 37,000  Level FlightAware Transoceanic
06:36AM 16.0466 -144.6852 50° Northeast 485 558 37,000  Level FlightAware Transoceanic
06:37AM 16.1335 -144.5788 50° Northeast 485 558 37,000  Level FlightAware Transoceanic
06:38AM 16.2203 -144.4722 50° Northeast 485 558 37,000  Level FlightAware Transoceanic
06:39AM 16.3070 -144.3656 50° Northeast 485 558 37,000  Level FlightAware Transoceanic
06:40AM 16.3937 -144.2589 50° Northeast 485 558 37,000  Level FlightAware Transoceanic
06:41AM 16.4803 -144.1521 50° Northeast 485 558 37,000  Level FlightAware Transoceanic
06:42AM 16.5669 -144.0452 50° Northeast 485 558 37,000  Level FlightAware Transoceanic
06:42AM 16.5500 -144.0667 50° Northeast 484 557 37,000  Level Oakland Oceanic (ODAPS)
06:43AM 16.6534 -143.9382 50° Northeast 485 558 37,000  Level FlightAware Transoceanic
06:44AM 16.7399 -143.8311 50° Northeast 485 558 37,000  Level FlightAware Transoceanic
06:45AM 16.8263 -143.7239 50° Northeast 485 558 37,000  Level FlightAware Transoceanic
06:46AM 16.9126 -143.6166 50° Northeast 485 558 37,000  Level FlightAware Transoceanic
06:47AM 16.9989 -143.5092 50° Northeast 485 558 37,000  Level FlightAware Transoceanic
06:48AM 17.0707 -143.4203 50° Northeast 484 557 37,000  Level FlightAware Transoceanic
06:49AM 17.1573 -143.3122 50° Northeast 484 557 37,000  Level FlightAware Transoceanic
06:50AM 17.2438 -143.2041 50° Northeast 484 557 37,000  Level FlightAware Transoceanic
06:51AM 17.3303 -143.0958 50° Northeast 484 557 37,000  Level FlightAware Transoceanic
06:52AM 17.4167 -142.9874 50° Northeast 484 557 37,000  Level FlightAware Transoceanic
06:53AM 17.5031 -142.8789 50° Northeast 484 557 37,000  Level FlightAware Transoceanic
06:54AM 17.5894 -142.7704 50° Northeast 484 557 37,000  Level FlightAware Transoceanic
06:55AM 17.6756 -142.6617 50° Northeast 484 557 37,000  Level FlightAware Transoceanic
06:55AM 17.7333 -142.5833 50° Northeast 483 556 37,000  Level Oakland Oceanic (ODAPS)
06:56AM 17.7618 -142.5529 50° Northeast 484 557 37,000  Level FlightAware Transoceanic
06:57AM 17.8479 -142.4440 50° Northeast 484 557 37,000  Level FlightAware Transoceanic
06:58AM 17.9340 -142.3350 50° Northeast 484 557 37,000  Level FlightAware Transoceanic
06:59AM 18.0200 -142.2259 50° Northeast 484 557 37,000  Level FlightAware Transoceanic
07:00AM 18.1059 -142.1167 50° Northeast 484 557 37,000  Level FlightAware Transoceanic
07:01AM 18.1918 -142.0073 50° Northeast 484 557 37,000  Level FlightAware Transoceanic
07:02AM 18.2551 -141.9222 50° Northeast 483 556 37,000  Level FlightAware Transoceanic
07:03AM 18.3419 -141.8116 50° Northeast 483 556 37,000  Level FlightAware Transoceanic
07:04AM 18.4285 -141.7010 50° Northeast 483 556 37,000  Level FlightAware Transoceanic
07:05AM 18.5151 -141.5902 51° Northeast 483 556 37,000  Level FlightAware Transoceanic
07:06AM 18.6017 -141.4793 51° Northeast 483 556 37,000  Level FlightAware Transoceanic
07:07AM 18.6882 -141.3683 51° Northeast 483 556 37,000  Level FlightAware Transoceanic
07:08AM 18.7746 -141.2571 51° Northeast 483 556 37,000  Level FlightAware Transoceanic
07:09AM 18.8609 -141.1459 51° Northeast 483 556 37,000  Level FlightAware Transoceanic
07:09AM 18.9000 -141.0833 50° Northeast 483 556 37,000  Level Oakland Oceanic (ODAPS)
07:10AM 18.9472 -141.0345 51° Northeast 483 556 37,000  Level FlightAware Transoceanic
07:11AM 19.0334 -140.9230 51° Northeast 483 556 37,000  Level FlightAware Transoceanic
07:12AM 19.1196 -140.8115 51° Northeast 483 556 37,000  Level FlightAware Transoceanic
07:13AM 19.2057 -140.6998 51° Northeast 483 556 37,000  Level FlightAware Transoceanic
07:14AM 19.2917 -140.5879 51° Northeast 483 556 37,000  Level FlightAware Transoceanic
07:15AM 19.3777 -140.4760 51° Northeast 483 556 37,000  Level FlightAware Transoceanic
07:16AM 19.4353 -140.3934 51° Northeast 483 556 37,000  Level FlightAware Transoceanic
07:17AM 19.5243 -140.2780 51° Northeast 483 556 37,000  Level FlightAware Transoceanic
07:18AM 19.6132 -140.1625 51° Northeast 483 556 37,000  Level FlightAware Transoceanic
07:19AM 19.7020 -140.0468 51° Northeast 483 556 37,000  Level FlightAware Transoceanic
07:20AM 19.7907 -139.9310 51° Northeast 483 556 37,000  Level FlightAware Transoceanic
07:21AM 19.8794 -139.8150 51° Northeast 483 556 37,000  Level FlightAware Transoceanic
07:22AM 19.9680 -139.6990 51° Northeast 483 556 37,000  Level FlightAware Transoceanic
07:23AM 20.0565 -139.5828 51° Northeast 483 556 37,000  Level FlightAware Transoceanic
07:23AM 20.0833 -139.5500 51° Northeast 483 556 37,000  Level Oakland Oceanic (ODAPS)
07:24AM 20.1450 -139.4665 51° Northeast 483 556 37,000  Level FlightAware Transoceanic
07:25AM 20.2333 -139.3500 51° Northeast 483 556 37,000  Level FlightAware Transoceanic
07:25AM 20.2333 -139.3500 51° Northeast 495 570 37,000  Level Oakland Oceanic (ODAPS)
07:26AM 20.3189 -139.2364 51° Northeast 483 556 37,000  Level FlightAware Transoceanic
07:27AM 20.4043 -139.1226 51° Northeast 483 556 37,000  Level FlightAware Transoceanic
07:28AM 20.4897 -139.0087 51° Northeast 483 556 37,000  Level FlightAware Transoceanic
07:29AM 20.5750 -138.8947 51° Northeast 483 556 37,000  Level FlightAware Transoceanic
07:30AM 20.6533 -138.7898 51° Northeast 483 556 37,000  Level FlightAware Transoceanic
07:31AM 20.7453 -138.6663 51° Northeast 495 570 37,000  Level FlightAware Transoceanic
07:32AM 20.8304 -138.5519 52° Northeast 495 570 37,000  Level FlightAware Transoceanic
07:33AM 20.9154 -138.4374 52° Northeast 495 570 37,000  Level FlightAware Transoceanic
07:34AM 21.0004 -138.3227 52° Northeast 495 570 37,000  Level FlightAware Transoceanic
07:35AM 21.0852 -138.2079 52° Northeast 495 570 37,000  Level FlightAware Transoceanic
07:36AM 21.1700 -138.0930 52° Northeast 495 570 37,000  Level FlightAware Transoceanic
07:37AM 21.2547 -137.9780 52° Northeast 495 570 37,000  Level FlightAware Transoceanic
07:37AM 21.2333 -138.0000 52° Northeast 498 573 37,000  Level Oakland Oceanic (ODAPS)
07:38AM 21.3393 -137.8628 52° Northeast 495 570 37,000  Level FlightAware Transoceanic
07:39AM 21.4238 -137.7475 52° Northeast 495 570 37,000  Level FlightAware Transoceanic
07:40AM 21.5083 -137.6320 52° Northeast 495 570 37,000  Level FlightAware Transoceanic
07:41AM 21.5926 -137.5165 52° Northeast 495 570 37,000  Level FlightAware Transoceanic
07:42AM 21.6769 -137.4008 52° Northeast 495 570 37,000  Level FlightAware Transoceanic
07:43AM 21.7425 -137.3044 52° Northeast 498 573 37,000  Level FlightAware Transoceanic
07:44AM 21.8271 -137.1880 52° Northeast 498 573 37,000  Level FlightAware Transoceanic
07:45AM 21.9116 -137.0714 52° Northeast 498 573 37,000  Level FlightAware Transoceanic
07:46AM 21.9960 -136.9547 52° Northeast 498 573 37,000  Level FlightAware Transoceanic
07:47AM 22.0803 -136.8379 52° Northeast 498 573 37,000  Level FlightAware Transoceanic
07:48AM 22.1646 -136.7209 52° Northeast 498 573 37,000  Level FlightAware Transoceanic
07:49AM 22.2488 -136.6038 52° Northeast 498 573 37,000  Level FlightAware Transoceanic
07:50AM 22.3328 -136.4866 52° Northeast 498 573 37,000  Level FlightAware Transoceanic
07:51AM 22.4168 -136.3692 52° Northeast 498 573 37,000  Level FlightAware Transoceanic
07:51AM 22.3833 -136.4167 52° Northeast 500 575 37,000  Level Oakland Oceanic (ODAPS)
07:52AM 22.5008 -136.2516 52° Northeast 498 573 37,000  Level FlightAware Transoceanic
07:53AM 22.5846 -136.1340 52° Northeast 498 573 37,000  Level FlightAware Transoceanic
07:54AM 22.6683 -136.0162 52° Northeast 498 573 37,000  Level FlightAware Transoceanic
07:55AM 22.7520 -135.8982 52° Northeast 498 573 37,000  Level FlightAware Transoceanic
07:56AM 22.8356 -135.7801 53° Northeast 498 573 37,000  Level FlightAware Transoceanic
07:57AM 22.8915 -135.7015 53° Northeast 500 575 37,000  Level FlightAware Transoceanic
07:58AM 22.9758 -135.5818 53° Northeast 500 575 37,000  Level FlightAware Transoceanic
07:59AM 23.0601 -135.4619 53° Northeast 500 575 37,000  Level FlightAware Transoceanic
08:00AM 23.1443 -135.3419 53° Northeast 500 575 37,000  Level FlightAware Transoceanic
08:01AM 23.2284 -135.2217 53° Northeast 500 575 37,000  Level FlightAware Transoceanic
08:02AM 23.3124 -135.1014 53° Northeast 500 575 37,000  Level FlightAware Transoceanic
08:03AM 23.3963 -134.9809 53° Northeast 500 575 37,000  Level FlightAware Transoceanic
08:04AM 23.4802 -134.8603 53° Northeast 500 575 37,000  Level FlightAware Transoceanic
08:05AM 23.5639 -134.7395 53° Northeast 500 575 37,000  Level FlightAware Transoceanic
08:05AM 23.5333 -134.7833 53° Northeast 500 575 37,000  Level Oakland Oceanic (ODAPS)
08:06AM 23.6476 -134.6186 53° Northeast 500 575 37,000  Level FlightAware Transoceanic
08:07AM 23.7311 -134.4975 53° Northeast 500 575 37,000  Level FlightAware Transoceanic
08:08AM 23.8146 -134.3763 53° Northeast 500 575 37,000  Level FlightAware Transoceanic
08:09AM 23.8979 -134.2549 53° Northeast 500 575 37,000  Level FlightAware Transoceanic
08:10AM 23.9812 -134.1333 53° Northeast 500 575 37,000  Level FlightAware Transoceanic
08:11AM 24.0427 -134.0432 53° Northeast 500 575 37,000  Level FlightAware Transoceanic
08:12AM 24.1272 -133.9192 53° Northeast 500 575 37,000  Level FlightAware Transoceanic
08:13AM 24.2116 -133.7951 53° Northeast 500 575 37,000  Level FlightAware Transoceanic
08:14AM 24.2960 -133.6709 53° Northeast 500 575 37,000  Level FlightAware Transoceanic
08:15AM 24.3802 -133.5464 53° Northeast 500 575 37,000  Level FlightAware Transoceanic
08:16AM 24.4643 -133.4218 53° Northeast 500 575 37,000  Level FlightAware Transoceanic
08:17AM 24.5484 -133.2971 54° Northeast 500 575 37,000  Level FlightAware Transoceanic
08:18AM 24.6323 -133.1722 54° Northeast 500 575 37,000  Level FlightAware Transoceanic
08:19AM 24.7161 -133.0471 54° Northeast 500 575 37,000  Level FlightAware Transoceanic
08:19AM 24.6833 -133.1000 54° Northeast 501 577 37,000  Level Oakland Oceanic (ODAPS)
08:20AM 24.7999 -132.9218 54° Northeast 500 575 37,000  Level FlightAware Transoceanic
08:21AM 24.8835 -132.7964 54° Northeast 500 575 37,000  Level FlightAware Transoceanic
08:22AM 24.9670 -132.6708 54° Northeast 500 575 37,000  Level FlightAware Transoceanic
08:23AM 25.0504 -132.5450 54° Northeast 500 575 37,000  Level FlightAware Transoceanic
08:24AM 25.1337 -132.4191 54° Northeast 500 575 37,000  Level FlightAware Transoceanic
08:25AM 25.1464 -132.4009 54° Northeast 501 577 37,000  Level FlightAware Transoceanic
08:26AM 25.2232 -132.2838 54° Northeast 501 577 37,000  Level FlightAware Transoceanic
08:26AM 25.3000 -132.1667 54° Northeast 523 602 37,000  Level Oakland Oceanic (ODAPS)
08:27AM 25.3000 -132.1667 54° Northeast 501 577 37,000  Level FlightAware Transoceanic
08:28AM 25.3855 -132.0361 54° Northeast 501 577 37,000  Level FlightAware Transoceanic
08:29AM 25.4709 -131.9052 54° Northeast 501 577 37,000  Level FlightAware Transoceanic
08:30AM 25.5562 -131.7742 54° Northeast 501 577 37,000  Level FlightAware Transoceanic
08:31AM 25.6413 -131.6431 54° Northeast 501 577 37,000  Level FlightAware Transoceanic
08:32AM 25.7264 -131.5117 54° Northeast 501 577 37,000  Level FlightAware Transoceanic
08:33AM 25.8113 -131.3802 54° Northeast 523 602 37,000  Level FlightAware Transoceanic
08:33AM 25.8333 -131.3500 54° Northeast 529 609 37,000  Level Oakland Oceanic (ODAPS)
08:34AM 25.8961 -131.2484 54° Northeast 523 602 37,000  Level FlightAware Transoceanic
08:35AM 25.9808 -131.1165 55° Northeast 523 602 37,000  Level FlightAware Transoceanic
08:36AM 26.0654 -130.9844 55° Northeast 523 602 37,000  Level FlightAware Transoceanic
08:37AM 26.1498 -130.8521 55° Northeast 523 602 37,000  Level FlightAware Transoceanic
08:38AM 26.2342 -130.7195 55° Northeast 523 602 37,000  Level FlightAware Transoceanic
08:39AM 26.3465 -130.5460 55° Northeast 529 609 37,000  Level FlightAware Transoceanic
08:40AM 26.4317 -130.4113 55° Northeast 529 609 37,000  Level FlightAware Transoceanic
08:41AM 26.5166 -130.2764 55° Northeast 529 609 37,000  Level FlightAware Transoceanic
08:42AM 26.6015 -130.1413 55° Northeast 529 609 37,000  Level FlightAware Transoceanic
08:43AM 26.6862 -130.0060 55° Northeast 529 609 37,000  Level FlightAware Transoceanic
08:44AM 26.7708 -129.8706 55° Northeast 529 609 37,000  Level FlightAware Transoceanic
08:45AM 26.8552 -129.7349 55° Northeast 529 609 37,000  Level FlightAware Transoceanic
08:46AM 26.9396 -129.5990 55° Northeast 529 609 37,000  Level FlightAware Transoceanic
08:47AM 27.0238 -129.4629 55° Northeast 529 609 37,000  Level FlightAware Transoceanic
08:47AM 26.9667 -129.5333 55° Northeast 526 605 37,000  Level Oakland Oceanic (ODAPS)
08:48AM 27.1078 -129.3266 55° Northeast 529 609 37,000  Level FlightAware Transoceanic
08:49AM 27.1918 -129.1901 55° Northeast 529 609 37,000  Level FlightAware Transoceanic
08:50AM 27.2756 -129.0534 55° Northeast 529 609 37,000  Level FlightAware Transoceanic
08:51AM 27.3593 -128.9164 56° Northeast 529 609 37,000  Level FlightAware Transoceanic
08:52AM 27.4428 -128.7793 56° Northeast 529 609 37,000  Level FlightAware Transoceanic
08:53AM 27.4660 -128.7218 56° Northeast 526 605 37,000  Level FlightAware Transoceanic
08:54AM 27.5488 -128.5858 56° Northeast 526 605 37,000  Level FlightAware Transoceanic
08:55AM 27.6314 -128.4497 56° Northeast 526 605 37,000  Level FlightAware Transoceanic
08:56AM 27.7139 -128.3133 56° Northeast 526 605 37,000  Level FlightAware Transoceanic
08:57AM 27.7963 -128.1767 56° Northeast 526 605 37,000  Level FlightAware Transoceanic
08:58AM 27.8785 -128.0399 56° Northeast 526 605 37,000  Level FlightAware Transoceanic
08:59AM 27.9606 -127.9029 56° Northeast 526 605 37,000  Level FlightAware Transoceanic
09:00AM 28.0426 -127.7657 56° Northeast 526 605 37,000  Level FlightAware Transoceanic
09:00AM 28.1000 -127.6833 56° Northeast 533 613 37,000  Level Oakland Oceanic (ODAPS)
09:01AM 28.1244 -127.6283 56° Northeast 526 605 37,000  Level FlightAware Transoceanic
09:02AM 28.2061 -127.4907 56° Northeast 526 605 37,000  Level FlightAware Transoceanic
09:03AM 28.2877 -127.3529 56° Northeast 526 605 37,000  Level FlightAware Transoceanic
09:04AM 28.3691 -127.2148 56° Northeast 526 605 37,000  Level FlightAware Transoceanic
09:05AM 28.4504 -127.0766 56° Northeast 526 605 37,000  Level FlightAware Transoceanic
09:06AM 28.5315 -126.9381 56° Northeast 526 605 37,000  Level FlightAware Transoceanic
09:07AM 28.5929 -126.8445 56° Northeast 533 613 37,000  Level FlightAware Transoceanic
09:08AM 28.6746 -126.7039 57° Northeast 533 613 37,000  Level FlightAware Transoceanic
09:09AM 28.7561 -126.5631 57° Northeast 533 613 37,000  Level FlightAware Transoceanic
09:10AM 28.8374 -126.4221 57° Northeast 533 613 37,000  Level FlightAware Transoceanic
09:11AM 28.9186 -126.2809 57° Northeast 533 613 37,000  Level FlightAware Transoceanic
09:12AM 28.9997 -126.1394 57° Northeast 533 613 37,000  Level FlightAware Transoceanic
09:13AM 29.0806 -125.9977 57° Northeast 533 613 37,000  Level FlightAware Transoceanic
09:14AM 29.1614 -125.8559 57° Northeast 533 613 37,000  Level FlightAware Transoceanic
09:14AM 29.2333 -125.7500 57° Northeast 537 618 37,000  Level Oakland Oceanic (ODAPS)
09:15AM 29.2420 -125.7137 57° Northeast 533 613 37,000  Level FlightAware Transoceanic
09:16AM 29.3225 -125.5714 57° Northeast 533 613 37,000  Level FlightAware Transoceanic
09:17AM 29.4028 -125.4288 57° Northeast 533 613 37,000  Level FlightAware Transoceanic
09:18AM 29.4830 -125.2860 57° Northeast 533 613 37,000  Level FlightAware Transoceanic
09:19AM 29.5630 -125.1430 57° Northeast 533 613 37,000  Level FlightAware Transoceanic
09:20AM 29.6916 -124.9266 58° Northeast 537 618 37,000  Level FlightAware Transoceanic
09:21AM 29.7675 -124.7886 58° Northeast 537 618 37,000  Level FlightAware Transoceanic
09:22AM 29.8432 -124.6505 58° Northeast 537 618 37,000  Level FlightAware Transoceanic
09:23AM 29.9188 -124.5121 58° Northeast 537 618 37,000  Level FlightAware Transoceanic
09:24AM 29.9942 -124.3735 58° Northeast 537 618 37,000  Level FlightAware Transoceanic
09:25AM 30.0695 -124.2347 58° Northeast 537 618 37,000  Level FlightAware Transoceanic
09:26AM 30.1447 -124.0957 58° Northeast 537 618 37,000  Level FlightAware Transoceanic
09:27AM 30.2197 -123.9565 58° Northeast 537 618 37,000  Level FlightAware Transoceanic
09:28AM 30.2946 -123.8170 58° Northeast 537 618 37,000 -1,380 Level FlightAware Transoceanic
09:28AM 30.3333 -123.7500 58° Northeast 534 615 35,000  Descending Oakland Oceanic (ODAPS)
09:29AM 30.3693 -123.6774 58° Northeast 537 618 37,000 1,260 Climbing FlightAware Transoceanic
09:30AM 30.4439 -123.5375 58° Northeast 537 618 37,000  Level FlightAware Transoceanic
09:31AM 30.5183 -123.3975 58° Northeast 537 618 37,000  Level FlightAware Transoceanic
09:32AM 30.5926 -123.2572 58° Northeast 537 618 37,000  Level FlightAware Transoceanic
09:33AM 30.6667 -123.1167 59° Northeast 537 618 37,000 -1,020 Level FlightAware Transoceanic
09:34AM 30.7479 -122.9619 59° Northeast 534 615 35,000 -1,020 Descending FlightAware Transoceanic
09:35AM 30.8290 -122.8069 59° Northeast 534 615 35,000  Level FlightAware Transoceanic
09:36AM 30.9098 -122.6516 59° Northeast 534 615 35,000  Level FlightAware Transoceanic
09:37AM 30.9905 -122.4961 59° Northeast 534 615 35,000  Level FlightAware Transoceanic
09:38AM 31.0710 -122.3403 59° Northeast 534 615 35,000  Level FlightAware Transoceanic
09:39AM 31.1513 -122.1843 59° Northeast 534 615 35,000  Level FlightAware Transoceanic
09:40AM 31.2314 -122.0279 59° Northeast 534 615 35,000  Level FlightAware Transoceanic
09:40AM 31.2820 -121.9920 59° Northeast 541 623 35,000  Level FlightAware
09:41AM 31.3440 -121.8920 54° Northeast 541 623 35,000  Level FlightAware
09:42AM 31.4250 -121.7540 55° Northeast 541 623 35,000  Level FlightAware
09:42AM 31.4790 -121.6630 55° Northeast 539 620 35,000  Level FlightAware
09:43AM 31.5420 -121.5570 55° Northeast 539 620 35,000  Level FlightAware
09:44AM 31.5870 -121.4820 55° Northeast 539 620 35,000  Level FlightAware
09:44AM 31.6420 -121.3900 55° Northeast 539 620 35,000  Level FlightAware
09:46AM 31.7210 -121.2580 55° Northeast 539 620 35,000  Level FlightAware
09:46AM 31.8250 -121.0750 56° Northeast 541 623 35,000  Level FlightAware
09:47AM 31.8840 -120.9760 55° Northeast 541 623 35,000  Level FlightAware
09:48AM 31.9630 -120.8390 56° Northeast 543 625 35,000  Level FlightAware
09:49AM 32.0250 -120.7320 56° Northeast 544 626 35,000  Level FlightAware
09:49AM 32.0700 -120.6570 55° Northeast 544 626 35,000  Level FlightAware
09:50AM 32.1170 -120.5770 55° Northeast 544 626 35,000  Level FlightAware
09:51AM 32.2050 -120.4180 57° Northeast 543 625 35,000 -360 Level FlightAware
09:51AM 32.2650 -120.3140 56° Northeast 543 625 34,500 -1,320 Descending FlightAware
09:52AM 32.3200 -120.2170 56° Northeast 534 615 33,200 -1,980 Descending FlightAware
09:53AM 32.3800 -120.1120 56° Northeast 526 605 31,800 -1,920 Descending FlightAware
09:54AM 32.4360 -120.0140 56° Northeast 523 602 30,500 -1,860 Descending FlightAware
09:54AM 32.4920 -119.9150 56° Northeast 513 590 29,200 -1,620 Descending FlightAware
09:55AM 32.5580 -119.7990 56° Northeast 500 575 27,700 -1,860 Descending FlightAware
09:56AM 32.6310 -119.6680 56° Northeast 485 558 25,900 -2,160 Descending FlightAware
09:57AM 32.6830 -119.5750 56° Northeast 474 545 24,700 -1,740 Descending FlightAware
09:57AM 32.7300 -119.4920 56° Northeast 466 536 23,600 -1,680 Descending FlightAware
09:58AM 32.7850 -119.3950 56° Northeast 455 524 22,300 -1,740 Descending FlightAware
09:59AM 32.8290 -119.3160 56° Northeast 444 511 21,200 -1,740 Descending FlightAware
10:00AM 32.8800 -119.2230 57° Northeast 431 496 19,900 -1,620 Descending FlightAware
10:00AM 32.9230 -119.1460 56° Northeast 422 486 18,900 -1,620 Descending FlightAware
10:01AM 32.9640 -119.0720 57° Northeast 412 474 17,800 -1,680 Descending FlightAware
10:02AM 33.0120 -118.9860 56° Northeast 403 464 16,600 -1,620 Descending FlightAware
10:02AM 33.0540 -118.9090 57° Northeast 394 453 15,500 -1,560 Descending FlightAware
10:03AM 33.0950 -118.8350 57° Northeast 386 444 14,400 -1,620 Descending FlightAware
10:04AM 33.1360 -118.7600 57° Northeast 379 436 13,300 -1,620 Descending FlightAware
10:04AM 33.1750 -118.6890 57° Northeast 375 432 12,200 -780 Descending FlightAware
10:05AM 33.2420 -118.5960 49° Northeast 373 429 12,000 -180 Descending FlightAware
10:06AM 33.2850 -118.5390 48° Northeast 373 429 12,000  Level FlightAware
10:07AM 33.3390 -118.4680 48° Northeast 373 429 12,000  Level FlightAware
10:07AM 33.3770 -118.3970 57° Northeast 362 417 12,000  Level FlightAware
10:08AM 33.3910 -118.3140 79° East 356 410 12,000  Level FlightAware
10:09AM 33.4020 -118.2350 81° East 355 409 12,000  Level FlightAware
10:09AM 33.4120 -118.1660 80° East 350 403 12,000 -240 Level FlightAware
10:10AM 33.4270 -118.1320 62° Northeast 343 395 11,800 -1,200 Descending FlightAware
10:10AM 33.4660 -118.0920 41° Northeast 349 402 11,000 -1,140 Descending FlightAware
10:11AM 33.5150 -118.0510 35° Northeast 335 386 10,100 -1,440 Descending FlightAware
10:12AM 33.5830 -118.0060 29° Northeast 323 372 8,900 -1,800 Descending FlightAware
10:12AM 33.6410 -118.0080 358° North 293 337 8,100 -1,140 Descending FlightAware
10:13AM 33.6780 -118.0190 346° North 273 314 7,600 -840 Descending FlightAware
10:13AM 33.7120 -118.0300 345° North 265 305 7,300 -660 Descending FlightAware
10:14AM 33.7460 -118.0420 344° North 259 298 7,000 -420 Descending FlightAware
10:14AM 33.7650 -118.0490 343° North 259 298 7,000  Level FlightAware
10:15AM 33.7920 -118.0560 348° North 261 300 7,000 -300 Level FlightAware
10:16AM 33.8650 -118.0500 North 213 245 6,600 -1,140 Descending FlightAware
10:16AM 33.8980 -118.0480 North 210 242 5,800 -1,440 Descending FlightAware
10:17AM 33.9290 -118.0570 346° North 207 238 5,000 -1,260 Descending FlightAware
10:17AM 33.9400 -118.0800 300° West 202 232 4,600 -1,140 Descending FlightAware
10:18AM 33.9500 -118.1090 293° West 201 231 4,100 -960 Descending FlightAware
10:18AM 33.9590 -118.1320 295° West 199 229 3,800 -840 Descending FlightAware
10:18AM 33.9610 -118.1490 278° West 198 228 3,600 -660 Descending FlightAware
10:19AM 33.9570 -118.1820 262° West 198 228 3,300 -720 Descending FlightAware
10:19AM 33.9560 -118.1940 264° West 198 228 3,100 -1,020 Descending FlightAware
10:19AM 33.9540 -118.2190 264° West 199 229 2,700 -1,020 Descending FlightAware
10:20AM 33.9520 -118.2400 263° West 190 219 2,400 -1,080 Descending FlightAware
10:20AM 33.9490 -118.2680 263° West 177 204 1,900 -960 Descending FlightAware
10:21AM 33.9470 -118.2900 264° West 168 193 1,600 -840 Descending FlightAware
10:21AM 33.9450 -118.3090 263° West 153 176 1,300 -780 Descending FlightAware
10:21AM 33.9430 -118.3280 263° West 152 175 1,000 -840 Descending FlightAware
10:22AM 33.9410 -118.3520 264° West 150 173 600 -900 Descending FlightAware
10:22AM 33.9380 -118.3760 261° West 156 180 200 -840 Descending FlightAware
10:30AM 33.9333 -118.4000 261° West  Level FlightAware Approximate
10:31AM 33.9425 -118.4081 261° West  Level Estimated
10:32AM 33.9425 -118.4081 261° West  Level Estimated